sensor_id;sensor_type;location;lat;lon;timestamp;temperature;humidity
19906;DHT22;10115;50.906;4.438;2023-05-14T00:01:48;11.90;99.90
19906;DHT22;10115;50.906;4.438;2023-05-14T00:04:16;12.00;99.90
19906;DHT22;10115;50.906;4.438;2023-05-14T00:06:44;12.00;99.90
19906;DHT22;10115;50.906;4.438;2023-05-14T00:09:10;12.00;99.90
19906;DHT22;10115;50.906;4.438;2023-05-14T00:11:36;11.90;99.90
19906;DHT22;10115;50.906;4.438;2023-05-14T00:14:02;11.90;99.90
19906;DHT22;10115;50.906;4.438;2023-05-14T00:16:27;11.80;99.90
19906;DHT22;10115;50.906;4.438;2023-05-14T00:18:53;11.80;99.90
19906;DHT22;10115;50.906;4.438;2023-05-14T00:21:19;11.80;99.90
19906;DHT22;10115;50.906;4.438;2023-05-14T00:23:45;11.80;99.90
19906;DHT22;10115;50.906;4.438;2023-05-14T00:26:10;11.80;99.90
19906;DHT22;10115;50.906;4.438;2023-05-14T00:28:36;11.80;99.90
19906;DHT22;10115;50.906;4.438;2023-05-14T00:31:02;11.80;99.90
19906;DHT22;10115;50.906;4.438;2023-05-14T00:33:27;11.80;99.90
19906;DHT22;10115;50.906;4.438;2023-05-14T00:35:53;11.90;99.90
19906;DHT22;10115;50.906;4.438;2023-05-14T00:38:19;12.00;99.90
19906;DHT22;10115;50.906;4.438;2023-05-14T00:40:45;12.10;99.90
19906;DHT22;10115;50.906;4.438;2023-05-14T00:43:20;12.10;99.90
19906;DHT22;10115;50.906;4.438;2023-05-14T00:45:49;12.10;99.90
19906;DHT22;10115;50.906;4.438;2023-05-14T00:48:15;12.10;99.90
19906;DHT22;10115;50.906;4.438;2023-05-14T00:50:41;11.90;99.90
19906;DHT22;10115;50.906;4.438;2023-05-14T00:53:08;11.80;99.90
19906;DHT22;10115;50.906;4.438;2023-05-14T00:55:39;12.00;99.90
19906;DHT22;10115;50.906;4.438;2023-05-14T00:58:14;12.00;99.90
19906;DHT22;10115;50.906;4.438;2023-05-14T01:00:41;11.90;99.90
19906;DHT22;10115;50.906;4.438;2023-05-14T01:03:07;12.00;99.90
19906;DHT22;10115;50.906;4.438;2023-05-14T01:11:21;11.90;99.90
19906;DHT22;10115;50.906;4.438;2023-05-14T01:14:14;11.90;99.90
19906;DHT22;10115;50.906;4.438;2023-05-14T01:16:43;11.90;99.90
19906;DHT22;10115;50.906;4.438;2023-05-14T01:19:52;12.00;99.90
19906;DHT22;10115;50.906;4.438;2023-05-14T01:22:11;11.90;99.90
19906;DHT22;10115;50.906;4.438;2023-05-14T01:24:36;12.00;99.90
19906;DHT22;10115;50.906;4.438;2023-05-14T01:30:14;12.10;99.90
19906;DHT22;10115;50.906;4.438;2023-05-14T01:32:44;12.00;99.90
19906;DHT22;10115;50.906;4.438;2023-05-14T01:35:13;12.00;99.90
19906;DHT22;10115;50.906;4.438;2023-05-14T01:37:40;11.90;99.90
19906;DHT22;10115;50.906;4.438;2023-05-14T01:40:07;11.90;99.90
19906;DHT22;10115;50.906;4.438;2023-05-14T01:42:34;11.90;99.90
19906;DHT22;10115;50.906;4.438;2023-05-14T01:45:00;11.90;99.90
19906;DHT22;10115;50.906;4.438;2023-05-14T01:47:26;11.90;99.90
19906;DHT22;10115;50.906;4.438;2023-05-14T01:49:52;11.90;99.90
19906;DHT22;10115;50.906;4.438;2023-05-14T01:52:18;11.90;99.90
19906;DHT22;10115;50.906;4.438;2023-05-14T01:54:46;11.90;99.90
19906;DHT22;10115;50.906;4.438;2023-05-14T01:57:12;11.90;99.90
19906;DHT22;10115;50.906;4.438;2023-05-14T01:59:37;12.00;99.90
19906;DHT22;10115;50.906;4.438;2023-05-14T02:02:03;11.90;99.90
19906;DHT22;10115;50.906;4.438;2023-05-14T02:04:29;12.00;99.90
19906;DHT22;10115;50.906;4.438;2023-05-14T02:06:54;12.00;99.90
19906;DHT22;10115;50.906;4.438;2023-05-14T02:09:20;11.90;99.90
19906;DHT22;10115;50.906;4.438;2023-05-14T02:11:46;12.00;99.90
19906;DHT22;10115;50.906;4.438;2023-05-14T02:14:12;12.00;99.90
19906;DHT22;10115;50.906;4.438;2023-05-14T02:16:39;12.00;99.90
19906;DHT22;10115;50.906;4.438;2023-05-14T02:19:05;12.00;99.90
19906;DHT22;10115;50.906;4.438;2023-05-14T02:21:30;12.00;99.90
19906;DHT22;10115;50.906;4.438;2023-05-14T02:23:56;11.90;99.90
19906;DHT22;10115;50.906;4.438;2023-05-14T02:26:22;11.90;99.90
19906;DHT22;10115;50.906;4.438;2023-05-14T02:28:47;11.90;99.90
19906;DHT22;10115;50.906;4.438;2023-05-14T02:31:13;12.00;99.90
19906;DHT22;10115;50.906;4.438;2023-05-14T02:33:39;12.00;99.90
19906;DHT22;10115;50.906;4.438;2023-05-14T02:36:05;12.00;99.90
19906;DHT22;10115;50.906;4.438;2023-05-14T02:38:30;11.90;99.90
19906;DHT22;10115;50.906;4.438;2023-05-14T02:40:56;11.90;99.90
19906;DHT22;10115;50.906;4.438;2023-05-14T02:43:22;11.80;99.90
19906;DHT22;10115;50.906;4.438;2023-05-14T02:45:47;11.80;99.90
19906;DHT22;10115;50.906;4.438;2023-05-14T02:48:13;11.80;99.90
19906;DHT22;10115;50.906;4.438;2023-05-14T02:50:39;11.90;99.90
19906;DHT22;10115;50.906;4.438;2023-05-14T02:53:04;11.90;99.90
19906;DHT22;10115;50.906;4.438;2023-05-14T02:55:30;11.90;99.90
19906;DHT22;10115;50.906;4.438;2023-05-14T02:57:56;11.90;99.90
19906;DHT22;10115;50.906;4.438;2023-05-14T03:00:21;11.80;99.90
19906;DHT22;10115;50.906;4.438;2023-05-14T03:02:47;12.00;99.90
19906;DHT22;10115;50.906;4.438;2023-05-14T03:05:13;11.90;99.90
19906;DHT22;10115;50.906;4.438;2023-05-14T03:07:38;11.80;99.90
19906;DHT22;10115;50.906;4.438;2023-05-14T03:10:05;11.90;99.90
19906;DHT22;10115;50.906;4.438;2023-05-14T03:12:30;11.90;99.90
19906;DHT22;10115;50.906;4.438;2023-05-14T03:14:56;11.90;99.90
19906;DHT22;10115;50.906;4.438;2023-05-14T03:17:22;11.80;99.90
19906;DHT22;10115;50.906;4.438;2023-05-14T03:19:47;11.80;99.90
19906;DHT22;10115;50.906;4.438;2023-05-14T03:22:13;11.80;99.90
19906;DHT22;10115;50.906;4.438;2023-05-14T03:24:39;11.90;99.90
19906;DHT22;10115;50.906;4.438;2023-05-14T03:27:05;11.90;99.90
19906;DHT22;10115;50.906;4.438;2023-05-14T03:29:31;11.80;99.90
19906;DHT22;10115;50.906;4.438;2023-05-14T03:31:57;11.80;99.90
19906;DHT22;10115;50.906;4.438;2023-05-14T03:34:22;11.90;99.90
19906;DHT22;10115;50.906;4.438;2023-05-14T03:36:49;11.90;99.90
19906;DHT22;10115;50.906;4.438;2023-05-14T03:39:15;11.90;99.90
19906;DHT22;10115;50.906;4.438;2023-05-14T03:41:44;11.90;99.90
19906;DHT22;10115;50.906;4.438;2023-05-14T03:44:11;11.90;99.90
19906;DHT22;10115;50.906;4.438;2023-05-14T03:46:36;11.80;99.90
19906;DHT22;10115;50.906;4.438;2023-05-14T03:49:02;11.90;99.90
19906;DHT22;10115;50.906;4.438;2023-05-14T03:51:28;11.70;99.90
19906;DHT22;10115;50.906;4.438;2023-05-14T03:53:54;11.80;99.90
19906;DHT22;10115;50.906;4.438;2023-05-14T03:56:19;11.80;99.90
19906;DHT22;10115;50.906;4.438;2023-05-14T03:58:45;11.90;99.90
19906;DHT22;10115;50.906;4.438;2023-05-14T04:01:11;11.90;99.90
19906;DHT22;10115;50.906;4.438;2023-05-14T04:03:37;11.80;99.90
19906;DHT22;10115;50.906;4.438;2023-05-14T04:06:02;11.70;99.90
19906;DHT22;10115;50.906;4.438;2023-05-14T04:08:28;11.70;99.90
19906;DHT22;10115;50.906;4.438;2023-05-14T04:10:54;11.80;99.90
19906;DHT22;10115;50.906;4.438;2023-05-14T04:13:19;11.90;99.90
19906;DHT22;10115;50.906;4.438;2023-05-14T04:15:45;11.80;99.90
19906;DHT22;10115;50.906;4.438;2023-05-14T04:18:11;11.90;99.90
19906;DHT22;10115;50.906;4.438;2023-05-14T04:20:36;11.90;99.90
19906;DHT22;10115;50.906;4.438;2023-05-14T04:23:02;11.90;99.90
19906;DHT22;10115;50.906;4.438;2023-05-14T04:25:28;11.90;99.90
19906;DHT22;10115;50.906;4.438;2023-05-14T04:27:54;12.00;99.90
19906;DHT22;10115;50.906;4.438;2023-05-14T04:30:20;11.90;99.90
19906;DHT22;10115;50.906;4.438;2023-05-14T04:32:45;11.90;99.90
19906;DHT22;10115;50.906;4.438;2023-05-14T04:35:11;12.20;99.90
19906;DHT22;10115;50.906;4.438;2023-05-14T04:37:37;12.10;99.90
19906;DHT22;10115;50.906;4.438;2023-05-14T04:40:04;12.00;99.90
19906;DHT22;10115;50.906;4.438;2023-05-14T04:42:31;12.00;99.90
19906;DHT22;10115;50.906;4.438;2023-05-14T04:44:56;12.00;99.90
19906;DHT22;10115;50.906;4.438;2023-05-14T04:47:23;12.00;99.90
19906;DHT22;10115;50.906;4.438;2023-05-14T04:49:48;12.00;99.90
19906;DHT22;10115;50.906;4.438;2023-05-14T04:52:14;11.80;99.90
19906;DHT22;10115;50.906;4.438;2023-05-14T04:54:40;11.80;99.90
19906;DHT22;10115;50.906;4.438;2023-05-14T04:57:06;11.80;99.90
19906;DHT22;10115;50.906;4.438;2023-05-14T04:59:31;12.00;99.90
19906;DHT22;10115;50.906;4.438;2023-05-14T05:01:57;11.80;99.90
19906;DHT22;10115;50.906;4.438;2023-05-14T05:04:23;11.80;99.90
19906;DHT22;10115;50.906;4.438;2023-05-14T05:06:49;11.90;99.90
19906;DHT22;10115;50.906;4.438;2023-05-14T05:09:16;12.00;99.90
19906;DHT22;10115;50.906;4.438;2023-05-14T05:11:42;11.80;99.90
19906;DHT22;10115;50.906;4.438;2023-05-14T05:14:08;11.90;99.90
19906;DHT22;10115;50.906;4.438;2023-05-14T05:16:33;11.90;99.90
19906;DHT22;10115;50.906;4.438;2023-05-14T05:18:59;12.10;99.90
19906;DHT22;10115;50.906;4.438;2023-05-14T05:21:25;12.30;99.90
19906;DHT22;10115;50.906;4.438;2023-05-14T05:23:50;12.40;99.90
19906;DHT22;10115;50.906;4.438;2023-05-14T05:26:16;12.30;99.90
19906;DHT22;10115;50.906;4.438;2023-05-14T05:28:42;12.30;99.90
19906;DHT22;10115;50.906;4.438;2023-05-14T05:31:07;12.50;99.90
19906;DHT22;10115;50.906;4.438;2023-05-14T05:33:34;12.70;99.90
19906;DHT22;10115;50.906;4.438;2023-05-14T05:35:59;12.50;99.90
19906;DHT22;10115;50.906;4.438;2023-05-14T05:38:25;12.40;99.90
19906;DHT22;10115;50.906;4.438;2023-05-14T05:40:51;12.60;99.90
19906;DHT22;10115;50.906;4.438;2023-05-14T05:43:17;12.50;99.90
19906;DHT22;10115;50.906;4.438;2023-05-14T05:45:43;12.50;99.90
19906;DHT22;10115;50.906;4.438;2023-05-14T05:48:10;12.20;99.90
19906;DHT22;10115;50.906;4.438;2023-05-14T05:50:36;12.10;99.90
19906;DHT22;10115;50.906;4.438;2023-05-14T05:53:02;12.20;99.90
19906;DHT22;10115;50.906;4.438;2023-05-14T05:55:28;12.20;99.90
19906;DHT22;10115;50.906;4.438;2023-05-14T05:57:54;12.30;99.90
19906;DHT22;10115;50.906;4.438;2023-05-14T06:00:20;12.40;99.90
19906;DHT22;10115;50.906;4.438;2023-05-14T06:02:48;12.40;99.90
19906;DHT22;10115;50.906;4.438;2023-05-14T06:05:13;12.30;99.90
19906;DHT22;10115;50.906;4.438;2023-05-14T06:07:39;12.30;99.90
19906;DHT22;10115;50.906;4.438;2023-05-14T06:10:05;12.30;99.90
19906;DHT22;10115;50.906;4.438;2023-05-14T06:12:31;12.30;99.90
19906;DHT22;10115;50.906;4.438;2023-05-14T06:14:57;12.20;99.90
19906;DHT22;10115;50.906;4.438;2023-05-14T06:17:23;12.20;99.90
19906;DHT22;10115;50.906;4.438;2023-05-14T06:19:50;12.40;99.90
19906;DHT22;10115;50.906;4.438;2023-05-14T06:22:16;12.50;99.90
19906;DHT22;10115;50.906;4.438;2023-05-14T06:24:42;12.60;99.90
19906;DHT22;10115;50.906;4.438;2023-05-14T06:27:09;12.60;99.90
19906;DHT22;10115;50.906;4.438;2023-05-14T06:29:35;12.40;99.90
19906;DHT22;10115;50.906;4.438;2023-05-14T06:32:02;12.20;99.90
19906;DHT22;10115;50.906;4.438;2023-05-14T06:34:29;12.50;99.90
19906;DHT22;10115;50.906;4.438;2023-05-14T06:36:55;12.40;99.90
19906;DHT22;10115;50.906;4.438;2023-05-14T06:39:21;12.30;99.90
19906;DHT22;10115;50.906;4.438;2023-05-14T06:41:47;12.30;99.90
19906;DHT22;10115;50.906;4.438;2023-05-14T06:44:13;12.40;99.90
19906;DHT22;10115;50.906;4.438;2023-05-14T06:46:38;12.60;99.90
19906;DHT22;10115;50.906;4.438;2023-05-14T06:49:04;12.70;99.90
19906;DHT22;10115;50.906;4.438;2023-05-14T06:51:30;12.80;99.90
19906;DHT22;10115;50.906;4.438;2023-05-14T06:53:55;12.90;99.90
19906;DHT22;10115;50.906;4.438;2023-05-14T06:56:21;12.60;99.90
19906;DHT22;10115;50.906;4.438;2023-05-14T06:58:47;12.50;99.90
19906;DHT22;10115;50.906;4.438;2023-05-14T07:01:13;12.40;99.90
19906;DHT22;10115;50.906;4.438;2023-05-14T07:03:39;12.40;99.90
19906;DHT22;10115;50.906;4.438;2023-05-14T07:06:05;12.40;99.90
19906;DHT22;10115;50.906;4.438;2023-05-14T07:08:31;12.40;99.90
19906;DHT22;10115;50.906;4.438;2023-05-14T07:10:56;12.60;99.90
19906;DHT22;10115;50.906;4.438;2023-05-14T07:13:22;13.00;99.90
19906;DHT22;10115;50.906;4.438;2023-05-14T07:15:48;13.20;99.90
19906;DHT22;10115;50.906;4.438;2023-05-14T07:18:15;13.20;99.90
19906;DHT22;10115;50.906;4.438;2023-05-14T07:20:41;13.00;99.90
19906;DHT22;10115;50.906;4.438;2023-05-14T07:23:06;12.90;99.90
19906;DHT22;10115;50.906;4.438;2023-05-14T07:25:32;13.00;99.90
19906;DHT22;10115;50.906;4.438;2023-05-14T07:27:58;13.10;99.90
19906;DHT22;10115;50.906;4.438;2023-05-14T07:30:23;13.30;99.90
19906;DHT22;10115;50.906;4.438;2023-05-14T07:32:49;13.30;99.90
19906;DHT22;10115;50.906;4.438;2023-05-14T07:35:15;13.30;99.90
19906;DHT22;10115;50.906;4.438;2023-05-14T07:37:41;13.10;99.90
19906;DHT22;10115;50.906;4.438;2023-05-14T07:40:07;13.20;99.90
19906;DHT22;10115;50.906;4.438;2023-05-14T07:42:33;13.40;99.90
19906;DHT22;10115;50.906;4.438;2023-05-14T07:44:59;13.50;99.90
19906;DHT22;10115;50.906;4.438;2023-05-14T07:47:25;13.40;99.90
19906;DHT22;10115;50.906;4.438;2023-05-14T07:49:57;13.50;99.90
19906;DHT22;10115;50.906;4.438;2023-05-14T07:52:23;13.50;99.90
19906;DHT22;10115;50.906;4.438;2023-05-14T07:54:50;13.50;99.90
19906;DHT22;10115;50.906;4.438;2023-05-14T07:57:17;13.40;99.90
19906;DHT22;10115;50.906;4.438;2023-05-14T07:59:42;13.40;99.90
19906;DHT22;10115;50.906;4.438;2023-05-14T08:02:08;13.40;99.90
19906;DHT22;10115;50.906;4.438;2023-05-14T08:04:37;13.50;99.90
19906;DHT22;10115;50.906;4.438;2023-05-14T08:07:03;13.80;99.90
19906;DHT22;10115;50.906;4.438;2023-05-14T08:09:28;13.80;99.90
19906;DHT22;10115;50.906;4.438;2023-05-14T08:11:54;13.90;99.90
19906;DHT22;10115;50.906;4.438;2023-05-14T08:14:20;14.30;99.90
19906;DHT22;10115;50.906;4.438;2023-05-14T08:16:46;14.40;99.90
19906;DHT22;10115;50.906;4.438;2023-05-14T08:19:13;14.50;99.90
19906;DHT22;10115;50.906;4.438;2023-05-14T08:21:39;14.70;99.90
19906;DHT22;10115;50.906;4.438;2023-05-14T08:24:05;14.70;99.90
19906;DHT22;10115;50.906;4.438;2023-05-14T08:26:31;15.00;99.90
19906;DHT22;10115;50.906;4.438;2023-05-14T08:28:56;15.00;99.90
19906;DHT22;10115;50.906;4.438;2023-05-14T08:31:22;14.90;99.90
19906;DHT22;10115;50.906;4.438;2023-05-14T08:33:48;14.90;99.90
19906;DHT22;10115;50.906;4.438;2023-05-14T08:36:13;14.50;99.90
19906;DHT22;10115;50.906;4.438;2023-05-14T08:38:39;14.50;99.90
19906;DHT22;10115;50.906;4.438;2023-05-14T08:41:06;14.10;99.90
19906;DHT22;10115;50.906;4.438;2023-05-14T08:43:59;14.20;99.90
19906;DHT22;10115;50.906;4.438;2023-05-14T08:46:29;14.40;99.90
19906;DHT22;10115;50.906;4.438;2023-05-14T08:49:01;14.60;99.90
19906;DHT22;10115;50.906;4.438;2023-05-14T08:51:29;15.00;99.90
19906;DHT22;10115;50.906;4.438;2023-05-14T08:53:58;14.60;99.90
19906;DHT22;10115;50.906;4.438;2023-05-14T08:56:26;14.30;99.90
19906;DHT22;10115;50.906;4.438;2023-05-14T08:58:52;13.90;99.90
19906;DHT22;10115;50.906;4.438;2023-05-14T09:01:18;13.70;99.90
19906;DHT22;10115;50.906;4.438;2023-05-14T09:03:44;13.90;99.90
19906;DHT22;10115;50.906;4.438;2023-05-14T09:06:12;14.40;99.90
19906;DHT22;10115;50.906;4.438;2023-05-14T09:08:38;14.70;99.90
19906;DHT22;10115;50.906;4.438;2023-05-14T09:11:04;14.90;99.90
19906;DHT22;10115;50.906;4.438;2023-05-14T09:13:30;14.60;99.90
19906;DHT22;10115;50.906;4.438;2023-05-14T09:15:56;14.50;99.90
19906;DHT22;10115;50.906;4.438;2023-05-14T09:18:23;14.80;99.90
19906;DHT22;10115;50.906;4.438;2023-05-14T09:20:49;15.60;99.90
19906;DHT22;10115;50.906;4.438;2023-05-14T09:23:16;15.90;99.90
19906;DHT22;10115;50.906;4.438;2023-05-14T09:25:42;16.00;99.90
19906;DHT22;10115;50.906;4.438;2023-05-14T09:28:08;16.00;99.90
19906;DHT22;10115;50.906;4.438;2023-05-14T09:30:33;16.00;99.90
19906;DHT22;10115;50.906;4.438;2023-05-14T09:33:01;16.10;99.90
19906;DHT22;10115;50.906;4.438;2023-05-14T09:35:28;16.00;99.90
19906;DHT22;10115;50.906;4.438;2023-05-14T09:37:54;16.20;99.90
19906;DHT22;10115;50.906;4.438;2023-05-14T09:40:21;16.70;99.90
19906;DHT22;10115;50.906;4.438;2023-05-14T09:42:48;16.30;99.90
19906;DHT22;10115;50.906;4.438;2023-05-14T09:45:14;16.50;99.90
19906;DHT22;10115;50.906;4.438;2023-05-14T09:47:41;16.30;99.90
19906;DHT22;10115;50.906;4.438;2023-05-14T09:50:07;16.80;99.90
19906;DHT22;10115;50.906;4.438;2023-05-14T09:52:33;17.10;99.90
19906;DHT22;10115;50.906;4.438;2023-05-14T09:55:00;17.30;99.90
19906;DHT22;10115;50.906;4.438;2023-05-14T09:57:26;17.20;99.90
19906;DHT22;10115;50.906;4.438;2023-05-14T09:59:52;17.50;99.90
19906;DHT22;10115;50.906;4.438;2023-05-14T10:02:26;17.80;99.90
19906;DHT22;10115;50.906;4.438;2023-05-14T10:04:56;17.80;99.90
19906;DHT22;10115;50.906;4.438;2023-05-14T10:07:46;17.50;99.90
19906;DHT22;10115;50.906;4.438;2023-05-14T10:10:18;17.40;99.90
19906;DHT22;10115;50.906;4.438;2023-05-14T10:12:57;17.40;99.90
19906;DHT22;10115;50.906;4.438;2023-05-14T10:15:32;17.10;99.90
19906;DHT22;10115;50.906;4.438;2023-05-14T10:18:05;16.80;99.90
19906;DHT22;10115;50.906;4.438;2023-05-14T10:20:32;17.10;99.90
19906;DHT22;10115;50.906;4.438;2023-05-14T10:22:59;17.40;99.90
19906;DHT22;10115;50.906;4.438;2023-05-14T10:25:26;17.40;99.90
19906;DHT22;10115;50.906;4.438;2023-05-14T10:27:52;18.10;99.90
19906;DHT22;10115;50.906;4.438;2023-05-14T10:30:20;18.30;99.90
19906;DHT22;10115;50.906;4.438;2023-05-14T10:33:07;17.50;99.90
19906;DHT22;10115;50.906;4.438;2023-05-14T10:36:03;16.90;99.90
19906;DHT22;10115;50.906;4.438;2023-05-14T10:38:31;16.20;99.90
19906;DHT22;10115;50.906;4.438;2023-05-14T10:41:01;16.40;99.90
19906;DHT22;10115;50.906;4.438;2023-05-14T10:43:27;17.00;99.90
19906;DHT22;10115;50.906;4.438;2023-05-14T10:45:55;17.10;99.90
19906;DHT22;10115;50.906;4.438;2023-05-14T10:48:22;17.50;99.90
19906;DHT22;10115;50.906;4.438;2023-05-14T10:50:50;17.60;99.90
19906;DHT22;10115;50.906;4.438;2023-05-14T10:53:16;17.70;99.90
19906;DHT22;10115;50.906;4.438;2023-05-14T10:55:42;17.10;99.90
19906;DHT22;10115;50.906;4.438;2023-05-14T10:58:12;17.10;99.90
19906;DHT22;10115;50.906;4.438;2023-05-14T11:00:39;17.50;99.90
19906;DHT22;10115;50.906;4.438;2023-05-14T11:03:05;17.80;99.90
19906;DHT22;10115;50.906;4.438;2023-05-14T11:05:32;18.40;99.90
19906;DHT22;10115;50.906;4.438;2023-05-14T11:07:58;18.00;99.90
19906;DHT22;10115;50.906;4.438;2023-05-14T11:10:28;17.60;99.90
19906;DHT22;10115;50.906;4.438;2023-05-14T11:12:56;17.30;99.90
19906;DHT22;10115;50.906;4.438;2023-05-14T11:15:24;17.40;99.90
19906;DHT22;10115;50.906;4.438;2023-05-14T11:17:52;17.00;99.90
19906;DHT22;10115;50.906;4.438;2023-05-14T11:20:18;16.90;99.90
19906;DHT22;10115;50.906;4.438;2023-05-14T11:22:46;17.50;99.90
19906;DHT22;10115;50.906;4.438;2023-05-14T11:25:13;17.80;99.90
19906;DHT22;10115;50.906;4.438;2023-05-14T11:27:40;18.30;99.90
19906;DHT22;10115;50.906;4.438;2023-05-14T11:30:25;18.20;99.90
19906;DHT22;10115;50.906;4.438;2023-05-14T11:32:51;17.90;99.90
19906;DHT22;10115;50.906;4.438;2023-05-14T11:35:18;18.10;99.90
19906;DHT22;10115;50.906;4.438;2023-05-14T11:37:50;17.80;99.90
19906;DHT22;10115;50.906;4.438;2023-05-14T11:40:17;17.80;99.90
19906;DHT22;10115;50.906;4.438;2023-05-14T11:42:43;17.90;99.90
19906;DHT22;10115;50.906;4.438;2023-05-14T11:45:12;18.30;99.90
19906;DHT22;10115;50.906;4.438;2023-05-14T11:47:48;18.20;99.90
19906;DHT22;10115;50.906;4.438;2023-05-14T11:50:15;18.40;99.90
19906;DHT22;10115;50.906;4.438;2023-05-14T11:52:41;18.50;99.90
19906;DHT22;10115;50.906;4.438;2023-05-14T11:55:11;18.70;99.90
19906;DHT22;10115;50.906;4.438;2023-05-14T11:57:37;18.60;99.90
19906;DHT22;10115;50.906;4.438;2023-05-14T12:00:03;18.30;99.90
19906;DHT22;10115;50.906;4.438;2023-05-14T12:02:33;18.20;99.90
19906;DHT22;10115;50.906;4.438;2023-05-14T12:04:59;18.50;99.90
19906;DHT22;10115;50.906;4.438;2023-05-14T12:07:28;19.00;99.90
19906;DHT22;10115;50.906;4.438;2023-05-14T12:10:00;19.50;99.90
19906;DHT22;10115;50.906;4.438;2023-05-14T12:12:26;19.60;99.90
19906;DHT22;10115;50.906;4.438;2023-05-14T12:14:52;19.40;99.90
19906;DHT22;10115;50.906;4.438;2023-05-14T12:17:20;19.20;99.90
19906;DHT22;10115;50.906;4.438;2023-05-14T12:19:48;19.40;99.90
19906;DHT22;10115;50.906;4.438;2023-05-14T12:22:19;19.70;99.90
19906;DHT22;10115;50.906;4.438;2023-05-14T12:24:55;20.10;99.90
19906;DHT22;10115;50.906;4.438;2023-05-14T12:27:28;20.20;99.90
19906;DHT22;10115;50.906;4.438;2023-05-14T12:30:01;20.10;99.90
19906;DHT22;10115;50.906;4.438;2023-05-14T12:32:31;20.30;99.90
19906;DHT22;10115;50.906;4.438;2023-05-14T12:34:58;20.60;99.90
19906;DHT22;10115;50.906;4.438;2023-05-14T12:37:25;20.00;99.90
19906;DHT22;10115;50.906;4.438;2023-05-14T12:39:52;20.00;99.90
19906;DHT22;10115;50.906;4.438;2023-05-14T12:42:17;19.70;99.90
19906;DHT22;10115;50.906;4.438;2023-05-14T12:44:43;19.90;99.90
19906;DHT22;10115;50.906;4.438;2023-05-14T12:47:09;20.00;99.90
19906;DHT22;10115;50.906;4.438;2023-05-14T12:49:34;20.30;99.90
19906;DHT22;10115;50.906;4.438;2023-05-14T12:52:00;20.40;99.90
19906;DHT22;10115;50.906;4.438;2023-05-14T12:54:27;20.50;99.90
19906;DHT22;10115;50.906;4.438;2023-05-14T12:56:53;21.00;99.90
19906;DHT22;10115;50.906;4.438;2023-05-14T12:59:19;21.30;99.90
19906;DHT22;10115;50.906;4.438;2023-05-14T13:01:45;21.40;99.90
19906;DHT22;10115;50.906;4.438;2023-05-14T13:04:12;21.70;99.90
19906;DHT22;10115;50.906;4.438;2023-05-14T13:06:38;22.00;99.90
19906;DHT22;10115;50.906;4.438;2023-05-14T13:09:05;21.80;99.90
19906;DHT22;10115;50.906;4.438;2023-05-14T13:11:31;21.70;99.90
19906;DHT22;10115;50.906;4.438;2023-05-14T13:13:57;21.50;99.90
19906;DHT22;10115;50.906;4.438;2023-05-14T13:16:27;21.20;99.90
19906;DHT22;10115;50.906;4.438;2023-05-14T13:18:53;21.70;99.90
19906;DHT22;10115;50.906;4.438;2023-05-14T13:21:19;22.90;99.90
19906;DHT22;10115;50.906;4.438;2023-05-14T13:23:48;23.00;99.90
19906;DHT22;10115;50.906;4.438;2023-05-14T13:26:15;22.90;99.90
19906;DHT22;10115;50.906;4.438;2023-05-14T13:28:42;24.10;99.90
19906;DHT22;10115;50.906;4.438;2023-05-14T13:31:12;24.00;99.90
19906;DHT22;10115;50.906;4.438;2023-05-14T13:33:42;24.90;99.90
19906;DHT22;10115;50.906;4.438;2023-05-14T13:36:09;25.60;99.90
19906;DHT22;10115;50.906;4.438;2023-05-14T13:38:36;26.40;99.90
19906;DHT22;10115;50.906;4.438;2023-05-14T13:41:02;25.80;99.90
19906;DHT22;10115;50.906;4.438;2023-05-14T13:43:37;24.00;99.90
19906;DHT22;10115;50.906;4.438;2023-05-14T13:46:04;22.90;99.90
19906;DHT22;10115;50.906;4.438;2023-05-14T13:48:31;22.00;99.90
19906;DHT22;10115;50.906;4.438;2023-05-14T13:50:57;22.90;99.90
19906;DHT22;10115;50.906;4.438;2023-05-14T13:53:23;24.30;99.90
19906;DHT22;10115;50.906;4.438;2023-05-14T13:55:50;24.10;99.90
19906;DHT22;10115;50.906;4.438;2023-05-14T13:58:21;23.60;99.90
19906;DHT22;10115;50.906;4.438;2023-05-14T14:00:48;24.50;99.90
19906;DHT22;10115;50.906;4.438;2023-05-14T14:03:14;23.90;99.90
19906;DHT22;10115;50.906;4.438;2023-05-14T14:05:39;24.70;99.90
19906;DHT22;10115;50.906;4.438;2023-05-14T14:08:05;25.20;99.90
19906;DHT22;10115;50.906;4.438;2023-05-14T14:10:31;24.90;99.90
19906;DHT22;10115;50.906;4.438;2023-05-14T14:12:57;25.30;99.90
19906;DHT22;10115;50.906;4.438;2023-05-14T14:15:22;25.70;99.90
19906;DHT22;10115;50.906;4.438;2023-05-14T14:17:48;25.90;99.90
19906;DHT22;10115;50.906;4.438;2023-05-14T14:20:14;24.70;99.90
19906;DHT22;10115;50.906;4.438;2023-05-14T14:22:42;24.50;99.90
19906;DHT22;10115;50.906;4.438;2023-05-14T14:25:08;24.00;99.90
19906;DHT22;10115;50.906;4.438;2023-05-14T14:27:35;22.30;99.90
19906;DHT22;10115;50.906;4.438;2023-05-14T14:30:05;21.80;99.90
19906;DHT22;10115;50.906;4.438;2023-05-14T14:32:31;21.80;99.90
19906;DHT22;10115;50.906;4.438;2023-05-14T14:34:57;22.80;99.90
19906;DHT22;10115;50.906;4.438;2023-05-14T14:37:23;22.80;99.90
19906;DHT22;10115;50.906;4.438;2023-05-14T14:39:48;22.30;99.90
19906;DHT22;10115;50.906;4.438;2023-05-14T14:42:14;22.70;99.90
19906;DHT22;10115;50.906;4.438;2023-05-14T14:44:40;23.70;99.90
19906;DHT22;10115;50.906;4.438;2023-05-14T14:47:06;23.10;99.90
19906;DHT22;10115;50.906;4.438;2023-05-14T14:49:33;22.80;99.90
19906;DHT22;10115;50.906;4.438;2023-05-14T14:51:58;23.00;99.90
19906;DHT22;10115;50.906;4.438;2023-05-14T14:54:24;23.20;99.90
19906;DHT22;10115;50.906;4.438;2023-05-14T14:56:50;23.10;99.90
19906;DHT22;10115;50.906;4.438;2023-05-14T14:59:18;22.80;99.90
19906;DHT22;10115;50.906;4.438;2023-05-14T15:01:43;23.40;99.90
19906;DHT22;10115;50.906;4.438;2023-05-14T15:04:09;23.50;99.90
19906;DHT22;10115;50.906;4.438;2023-05-14T15:06:35;22.50;99.90
19906;DHT22;10115;50.906;4.438;2023-05-14T15:09:01;22.70;99.90
19906;DHT22;10115;50.906;4.438;2023-05-14T15:11:28;22.90;99.90
19906;DHT22;10115;50.906;4.438;2023-05-14T15:13:53;23.00;99.90
19906;DHT22;10115;50.906;4.438;2023-05-14T15:16:19;23.20;99.90
19906;DHT22;10115;50.906;4.438;2023-05-14T15:18:45;22.00;99.90
19906;DHT22;10115;50.906;4.438;2023-05-14T15:21:10;21.50;99.90
19906;DHT22;10115;50.906;4.438;2023-05-14T15:23:36;22.20;99.90
19906;DHT22;10115;50.906;4.438;2023-05-14T15:26:03;22.30;99.90
19906;DHT22;10115;50.906;4.438;2023-05-14T15:28:29;22.60;99.90
19906;DHT22;10115;50.906;4.438;2023-05-14T15:30:54;21.90;99.90
19906;DHT22;10115;50.906;4.438;2023-05-14T15:33:20;21.80;99.90
19906;DHT22;10115;50.906;4.438;2023-05-14T15:35:46;21.40;99.90
19906;DHT22;10115;50.906;4.438;2023-05-14T15:38:12;21.30;99.90